Terminal Aerodrome Forecast
Issued by NWS Paducah, KY

Home | Current Version | Previous Version | Graphics & Text | Print | Product List | Glossary On
Versions: 1 2 3 4 5 6 7 8 9 10 11 12 13 14 15 16 17 18 19 20 21 22 23 24 25 26 27
000
FTUS43 KPAH 170614 AAA
TAFEVV
TAF AMD
KEVV 170614Z 1706/1806 00000KT P6SM OVC012
      TEMPO 1709/1713 2SM BR SCT012
     FM171500 07004KT P6SM SCT035
     FM171800 08005KT P6SM BKN040
     FM180000 00000KT P6SM BKN100=

USA.gov is the U.S. government's official web portal to all federal, state and local government web resources and services.